createdAt,value
2023-03-07T00:02:08.542Z,58.91
2023-03-07T00:04:36.823Z,62.34
2023-03-07T00:07:05.141Z,62.57
2023-03-07T00:09:33.436Z,58.20
2023-03-07T00:12:01.694Z,59.37
2023-03-07T00:14:31.377Z,57.26
2023-03-07T00:16:59.664Z,57.98
2023-03-07T00:19:28.080Z,58.82
2023-03-07T00:21:56.372Z,58.80
2023-03-07T00:24:24.720Z,58.14
2023-03-07T00:26:53.070Z,56.27
2023-03-07T00:29:22.532Z,55.69
2023-03-07T00:31:52.255Z,55.07
2023-03-07T00:34:21.488Z,56.61
2023-03-07T00:36:49.780Z,57.66
2023-03-07T00:39:18.076Z,55.85
2023-03-07T00:41:46.387Z,57.84
2023-03-07T00:44:14.654Z,58.46
2023-03-07T00:46:42.976Z,57.58
2023-03-07T00:49:13.162Z,61.62
2023-03-07T00:51:41.412Z,60.75
2023-03-07T00:54:09.719Z,61.58
2023-03-07T00:56:37.952Z,60.98
2023-03-07T00:59:06.300Z,59.76
2023-03-07T01:01:34.647Z,59.43
2023-03-07T01:04:02.935Z,60.42
2023-03-07T01:06:33.943Z,60.36
2023-03-07T01:09:03.774Z,60.38
2023-03-07T01:11:32.932Z,64.08
2023-03-07T01:14:02.853Z,60.20
2023-03-07T01:16:32.628Z,61.60
2023-03-07T01:19:02.505Z,67.30
2023-03-07T01:21:53.688Z,67.23
2023-03-07T01:24:21.988Z,61.82
2023-03-07T01:26:50.396Z,62.56
2023-03-07T01:29:18.670Z,64.17
2023-03-07T01:31:46.997Z,64.12
2023-03-07T01:34:15.305Z,64.05
2023-03-07T01:36:44.943Z,64.96
2023-03-07T01:39:14.894Z,61.59
2023-03-07T01:41:43.617Z,59.75
2023-03-07T01:44:17.277Z,58.84
2023-03-07T01:46:52.802Z,60.14
2023-03-07T01:49:24.884Z,58.29
2023-03-07T01:51:58.353Z,57.90
2023-03-07T01:54:27.401Z,57.57
2023-03-07T01:56:55.931Z,58.76
2023-03-07T01:59:29.907Z,58.50
2023-03-07T02:01:59.152Z,56.86
2023-03-07T02:04:30.073Z,56.38
2023-03-07T02:07:00.767Z,55.58
2023-03-07T02:09:28.890Z,53.93
2023-03-07T02:11:57.936Z,54.43
2023-03-07T02:14:26.306Z,54.00
2023-03-07T02:16:54.814Z,54.32
2023-03-07T02:19:46.663Z,53.71
2023-03-07T02:22:18.468Z,54.54
2023-03-07T02:24:51.730Z,56.48
2023-03-07T02:27:21.507Z,56.38
2023-03-07T02:29:49.812Z,57.81
2023-03-07T02:32:18.137Z,61.59
2023-03-07T02:34:46.479Z,63.11
2023-03-07T02:37:18.354Z,66.35
2023-03-07T02:39:47.848Z,68.94
2023-03-07T02:42:19.884Z,67.60
2023-03-07T02:44:57.423Z,71.35
2023-03-07T02:47:25.747Z,70.97
2023-03-07T02:49:54.622Z,71.49
2023-03-07T02:52:23.474Z,72.49
2023-03-07T02:54:51.790Z,72.63
2023-03-07T02:57:20.617Z,72.36
2023-03-07T02:59:50.249Z,69.54
2023-03-07T03:02:18.569Z,69.20
2023-03-07T03:04:46.859Z,67.47
2023-03-07T03:07:15.248Z,71.07
2023-03-07T03:09:43.528Z,68.81
2023-03-07T03:12:12.088Z,69.34
2023-03-07T03:14:40.644Z,66.63
2023-03-07T03:17:10.303Z,68.19
2023-03-07T03:19:38.814Z,65.75
2023-03-07T03:22:07.145Z,64.80
2023-03-07T03:24:38.729Z,66.74
2023-03-07T03:27:07.126Z,63.54
2023-03-07T03:29:35.885Z,65.13
2023-03-07T03:32:04.464Z,65.52
2023-03-07T03:34:34.163Z,64.32
2023-03-07T03:37:02.471Z,66.33
2023-03-07T03:39:30.906Z,64.37
2023-03-07T03:41:59.233Z,66.55
2023-03-07T03:44:27.494Z,65.81
2023-03-07T03:46:55.872Z,64.29
2023-03-07T03:49:24.396Z,63.90
2023-03-07T03:51:54.080Z,60.37
2023-03-07T03:54:22.383Z,63.27
2023-03-07T03:56:50.606Z,63.34
2023-03-07T03:59:18.927Z,66.09
2023-03-07T04:01:47.840Z,65.72
2023-03-07T04:04:16.671Z,64.38
2023-03-07T04:06:44.957Z,61.68
2023-03-07T04:09:14.560Z,63.11
2023-03-07T04:11:43.003Z,62.88
2023-03-07T04:14:11.355Z,62.94
2023-03-07T04:16:40.027Z,60.73
2023-03-07T04:19:10.130Z,59.43
2023-03-07T04:21:38.433Z,62.12
2023-03-07T04:24:07.723Z,58.91
2023-03-07T04:26:37.829Z,62.09
2023-03-07T04:29:06.190Z,61.86
2023-03-07T04:31:34.489Z,63.03
2023-03-07T04:34:02.840Z,59.37
2023-03-07T04:36:31.222Z,59.78
2023-03-07T04:38:59.483Z,58.89
2023-03-07T04:41:27.790Z,59.50
2023-03-07T04:43:57.492Z,59.54
2023-03-07T04:46:26.336Z,61.90
2023-03-07T04:48:54.663Z,61.50
2023-03-07T04:51:23.010Z,62.29
2023-03-07T04:53:51.420Z,62.11
2023-03-07T04:56:19.759Z,61.75
2023-03-07T04:58:48.080Z,60.52
2023-03-07T05:01:17.798Z,63.60
2023-03-07T05:03:46.094Z,62.21
2023-03-07T05:06:16.165Z,62.87
2023-03-07T05:08:44.466Z,63.69
2023-03-07T05:11:12.746Z,63.75
2023-03-07T05:13:41.080Z,63.69
2023-03-07T05:16:09.854Z,63.41
2023-03-07T05:18:39.604Z,65.73
2023-03-07T05:21:07.938Z,64.73
2023-03-07T05:23:36.317Z,65.87
2023-03-07T05:26:04.707Z,64.16
2023-03-07T05:28:34.073Z,67.81
2023-03-07T05:31:02.586Z,67.57
2023-03-07T05:33:31.714Z,67.15
2023-03-07T05:36:02.440Z,66.92
2023-03-07T05:38:30.812Z,68.36
2023-03-07T05:40:59.156Z,66.25
2023-03-07T05:43:27.537Z,66.16
2023-03-07T05:45:55.912Z,66.19
2023-03-07T05:48:24.305Z,62.43
2023-03-07T05:50:52.580Z,63.08
2023-03-07T05:53:22.286Z,64.30
2023-03-07T05:55:50.598Z,63.46
2023-03-07T05:58:18.935Z,64.08
2023-03-07T06:00:47.332Z,63.50
2023-03-07T06:03:15.619Z,60.70
2023-03-07T06:05:44.728Z,64.54
2023-03-07T06:08:12.975Z,62.87
2023-03-07T06:10:43.166Z,61.45
2023-03-07T06:13:20.630Z,60.64
2023-03-07T06:15:50.649Z,62.28
2023-03-07T06:18:19.181Z,60.17
2023-03-07T06:20:56.113Z,61.23
2023-03-07T06:23:24.624Z,58.48
2023-03-07T06:25:54.357Z,58.98
2023-03-07T06:28:22.982Z,58.00
2023-03-07T06:30:51.437Z,57.90
2023-03-07T06:33:19.851Z,57.57
2023-03-07T06:35:48.247Z,57.67
2023-03-07T06:38:18.530Z,57.01
2023-03-07T06:40:46.816Z,57.74
2023-03-07T06:43:16.489Z,56.46
2023-03-07T06:45:44.768Z,56.54
2023-03-07T06:48:13.036Z,57.03
2023-03-07T06:50:41.416Z,56.83
2023-03-07T06:53:09.704Z,56.26
2023-03-07T06:55:38.047Z,56.64
2023-03-07T06:58:06.292Z,55.57
2023-03-07T07:00:36.055Z,57.09
2023-03-07T07:03:04.598Z,57.42
2023-03-07T07:05:32.924Z,57.13
2023-03-07T07:08:01.189Z,57.65
2023-03-07T07:10:29.489Z,56.07
2023-03-07T07:12:58.103Z,57.44
2023-03-07T07:15:27.684Z,57.27
2023-03-07T07:17:57.374Z,56.33
2023-03-07T07:20:25.780Z,56.04
2023-03-07T07:22:54.107Z,55.61
2023-03-07T07:25:22.384Z,55.91
2023-03-07T07:27:50.733Z,57.41
2023-03-07T07:30:19.255Z,53.97
2023-03-07T07:32:48.177Z,53.45
2023-03-07T07:35:18.049Z,52.90
2023-03-07T07:37:46.369Z,54.11
2023-03-07T07:40:15.397Z,53.60
2023-03-07T07:42:44.376Z,51.96
2023-03-07T07:45:12.992Z,54.47
2023-03-07T07:47:41.255Z,51.50
2023-03-07T07:50:10.708Z,51.58
2023-03-07T07:52:40.379Z,51.71
2023-03-07T07:55:10.277Z,52.28
2023-03-07T07:57:38.589Z,50.02
2023-03-07T08:00:09.065Z,51.63
2023-03-07T08:02:37.779Z,51.34
2023-03-07T08:05:10.206Z,50.15
2023-03-07T08:07:39.963Z,50.90
2023-03-07T08:10:09.892Z,49.66
2023-03-07T08:12:38.313Z,49.54
2023-03-07T08:15:07.712Z,48.98
2023-03-07T08:17:36.020Z,49.93
2023-03-07T08:20:09.219Z,49.28
2023-03-07T08:22:37.663Z,48.76
2023-03-07T08:25:09.274Z,47.93
2023-03-07T08:27:37.553Z,48.84
2023-03-07T08:30:06.791Z,47.54
2023-03-07T08:32:35.216Z,48.70
2023-03-07T08:35:04.081Z,46.99
2023-03-07T08:37:32.373Z,47.40
2023-03-07T08:40:00.625Z,47.90
2023-03-07T08:42:30.345Z,47.42
2023-03-07T08:44:58.659Z,47.47
2023-03-07T08:47:27.084Z,46.54
2023-03-07T08:49:55.328Z,47.99
2023-03-07T08:52:24.862Z,47.61
2023-03-07T08:54:53.144Z,46.83
2023-03-07T08:57:21.394Z,46.85
2023-03-07T08:59:51.312Z,47.45
2023-03-07T09:02:19.650Z,48.78
2023-03-07T09:04:48.543Z,49.01
2023-03-07T09:07:16.892Z,48.77
2023-03-07T09:09:45.165Z,46.86
2023-03-07T09:12:14.826Z,47.83
2023-03-07T09:14:43.294Z,46.40
2023-03-07T09:17:12.928Z,46.66
2023-03-07T09:19:42.479Z,44.68
2023-03-07T09:22:10.789Z,47.97
2023-03-07T09:24:39.104Z,46.94
2023-03-07T09:27:07.524Z,46.52
2023-03-07T09:29:35.823Z,45.11
2023-03-07T09:32:04.602Z,44.86
2023-03-07T09:34:34.263Z,44.38
2023-03-07T09:37:02.624Z,44.95
2023-03-07T09:39:30.984Z,44.39
2023-03-07T09:42:10.402Z,44.72
2023-03-07T09:44:51.335Z,44.02
2023-03-07T09:47:31.825Z,43.16
2023-03-07T09:50:02.267Z,42.71
2023-03-07T09:52:35.590Z,42.95
2023-03-07T09:55:06.208Z,44.65
2023-03-07T09:57:34.759Z,41.49
2023-03-07T10:00:09.501Z,41.14
2023-03-07T10:02:40.517Z,39.65
2023-03-07T10:05:17.893Z,40.60
2023-03-07T10:07:46.293Z,42.67
2023-03-07T10:10:20.311Z,41.42
2023-03-07T10:12:59.644Z,41.86
2023-03-07T10:15:45.664Z,41.23
2023-03-07T10:18:25.947Z,41.70
2023-03-07T10:21:01.716Z,41.75
2023-03-07T10:24:04.765Z,44.05
2023-03-07T10:26:34.602Z,42.72
2023-03-07T10:29:09.347Z,43.51
2023-03-07T10:31:40.415Z,44.06
2023-03-07T10:34:25.851Z,43.94
2023-03-07T10:37:08.415Z,44.32
2023-03-07T10:39:43.571Z,41.59
2023-03-07T10:42:13.552Z,41.82
2023-03-07T10:44:42.061Z,44.90
2023-03-07T10:47:19.219Z,45.00
2023-03-07T10:49:48.666Z,40.70
2023-03-07T10:52:32.210Z,40.26
2023-03-07T10:55:32.540Z,41.44
2023-03-07T10:58:13.782Z,40.30
2023-03-07T11:00:44.322Z,42.90
2023-03-07T11:03:27.854Z,41.54
2023-03-07T11:05:56.151Z,43.37
2023-03-07T11:08:33.758Z,41.94
2023-03-07T11:11:03.233Z,40.51
2023-03-07T11:13:32.340Z,40.37
2023-03-07T11:16:12.178Z,42.13
2023-03-07T11:18:43.023Z,41.87
2023-03-07T11:21:28.295Z,43.59
2023-03-07T11:24:03.030Z,41.54
2023-03-07T11:26:34.409Z,41.89
2023-03-07T11:29:07.883Z,41.78
2023-03-07T11:31:41.702Z,41.36
2023-03-07T11:34:22.155Z,40.48
2023-03-07T11:36:56.425Z,40.54
2023-03-07T11:39:34.154Z,41.00
2023-03-07T11:42:05.866Z,40.13
2023-03-07T11:44:38.944Z,39.95
2023-03-07T11:47:26.030Z,41.52
2023-03-07T11:50:12.877Z,42.35
2023-03-07T11:52:56.914Z,40.66
2023-03-07T11:55:31.792Z,40.31
2023-03-07T11:58:11.507Z,39.90
2023-03-07T12:00:50.444Z,38.91
2023-03-07T12:03:30.367Z,39.65
2023-03-07T12:06:20.175Z,39.59
2023-03-07T12:08:57.776Z,40.39
2023-03-07T12:11:44.528Z,40.54
2023-03-07T12:14:21.918Z,39.67
2023-03-07T12:16:55.712Z,38.26
2023-03-07T12:19:51.542Z,41.93
2023-03-07T12:22:38.861Z,41.69
2023-03-07T12:25:20.267Z,38.97
2023-03-07T12:27:55.094Z,41.47
2023-03-07T12:30:26.739Z,41.94
2023-03-07T12:32:55.599Z,40.58
2023-03-07T12:35:26.271Z,41.13
2023-03-07T12:37:59.150Z,41.52
2023-03-07T12:40:30.621Z,41.56
2023-03-07T12:43:03.264Z,40.18
2023-03-07T12:45:37.248Z,41.07
2023-03-07T12:48:08.857Z,40.78
2023-03-07T12:50:41.389Z,40.39
2023-03-07T12:53:16.375Z,40.73
2023-03-07T12:55:46.525Z,42.19
2023-03-07T12:58:21.091Z,41.59
2023-03-07T13:00:51.358Z,39.74
2023-03-07T13:03:24.900Z,40.76
2023-03-07T13:05:53.333Z,40.89
2023-03-07T13:08:24.510Z,40.43
2023-03-07T13:10:52.785Z,40.57
2023-03-07T13:13:51.445Z,39.93
2023-03-07T13:16:37.385Z,39.12
2023-03-07T13:19:42.893Z,39.96
2023-03-07T13:22:53.861Z,40.40
2023-03-07T13:25:44.796Z,39.30
2023-03-07T13:28:51.532Z,39.13
2023-03-07T13:31:46.172Z,39.67
2023-03-07T13:34:52.995Z,38.61
2023-03-07T13:37:54.601Z,39.93
2023-03-07T13:40:46.370Z,39.84
2023-03-07T13:43:57.974Z,40.00
2023-03-07T13:46:58.736Z,39.58
2023-03-07T13:49:36.444Z,40.39
2023-03-07T13:52:23.143Z,39.38
2023-03-07T13:54:52.326Z,40.46
2023-03-07T13:57:21.747Z,38.04
2023-03-07T13:59:50.469Z,38.99
2023-03-07T14:02:21.204Z,38.94
2023-03-07T14:04:54.335Z,37.33
2023-03-07T14:07:24.937Z,38.42
2023-03-07T14:09:53.402Z,38.79
2023-03-07T14:12:30.125Z,37.54
2023-03-07T14:15:08.003Z,36.78
2023-03-07T14:17:53.603Z,37.69
2023-03-07T14:20:28.273Z,38.85
2023-03-07T14:23:08.551Z,38.51
2023-03-07T14:25:37.909Z,38.59
2023-03-07T14:28:21.490Z,38.31
2023-03-07T14:30:57.606Z,38.27
2023-03-07T14:33:32.596Z,38.19
2023-03-07T14:36:01.153Z,38.15
2023-03-07T14:38:29.606Z,38.52
2023-03-07T14:41:15.144Z,40.03
2023-03-07T14:43:54.110Z,38.79
2023-03-07T14:46:29.754Z,38.20
2023-03-07T14:49:09.019Z,37.50
2023-03-07T14:51:41.403Z,38.49
2023-03-07T14:54:16.205Z,38.56
2023-03-07T14:56:44.831Z,38.58
2023-03-07T14:59:26.330Z,38.27
2023-03-07T15:01:56.984Z,38.71
2023-03-07T15:04:28.967Z,38.88
2023-03-07T15:06:59.072Z,38.17
2023-03-07T15:09:27.743Z,38.55
2023-03-07T15:12:00.964Z,38.03
2023-03-07T15:14:36.157Z,38.37
2023-03-07T15:17:05.518Z,37.61
2023-03-07T15:19:39.367Z,38.21
2023-03-07T15:22:12.796Z,38.64
2023-03-07T15:24:44.996Z,37.86
2023-03-07T15:27:15.615Z,38.94
2023-03-07T15:29:45.377Z,37.46
2023-03-07T15:32:31.191Z,38.68
2023-03-07T15:35:05.165Z,38.51
2023-03-07T15:37:34.068Z,37.74
2023-03-07T15:40:03.851Z,38.21
2023-03-07T15:42:32.104Z,38.77
2023-03-07T15:45:01.532Z,37.89
2023-03-07T15:47:31.568Z,38.29
2023-03-07T15:50:04.900Z,37.48
2023-03-07T15:52:35.245Z,37.25
2023-03-07T15:55:08.070Z,37.30
2023-03-07T15:57:40.162Z,37.58
2023-03-07T16:00:16.033Z,37.98
2023-03-07T16:02:46.792Z,38.49
2023-03-07T16:05:32.978Z,37.58
2023-03-07T16:08:01.368Z,38.79
2023-03-07T16:10:31.204Z,39.05
2023-03-07T16:13:01.168Z,38.67
2023-03-07T16:15:29.549Z,38.79
2023-03-07T16:17:58.787Z,39.00
2023-03-07T16:20:29.632Z,39.28
2023-03-07T16:22:58.320Z,39.23
2023-03-07T16:25:29.638Z,39.54
2023-03-07T16:28:01.040Z,39.40
2023-03-07T16:30:30.768Z,39.56
2023-03-07T16:32:59.074Z,40.38
2023-03-07T16:35:30.610Z,39.85
2023-03-07T16:37:59.212Z,39.95
2023-03-07T16:40:27.558Z,40.87
2023-03-07T16:42:56.827Z,40.74
2023-03-07T16:45:27.922Z,40.56
2023-03-07T16:47:58.317Z,40.14
2023-03-07T16:50:29.153Z,40.49
2023-03-07T16:52:58.909Z,41.05
2023-03-07T16:55:27.610Z,41.05
2023-03-07T16:57:58.881Z,40.46
2023-03-07T17:00:28.309Z,40.95
2023-03-07T17:02:58.978Z,41.08
2023-03-07T17:05:27.905Z,41.40
2023-03-07T17:07:58.267Z,40.98
2023-03-07T17:10:27.496Z,41.76
2023-03-07T17:12:57.315Z,41.70
2023-03-07T17:15:30.677Z,41.67
2023-03-07T17:17:59.869Z,41.68
2023-03-07T17:20:28.744Z,42.50
2023-03-07T17:22:58.639Z,42.53
2023-03-07T17:25:27.874Z,42.51
2023-03-07T17:27:59.229Z,42.21
2023-03-07T17:30:28.871Z,42.19
2023-03-07T17:32:57.618Z,42.38
2023-03-07T17:35:28.431Z,42.57
2023-03-07T17:37:58.096Z,43.08
2023-03-07T17:40:26.427Z,41.86
2023-03-07T17:42:57.408Z,42.10
2023-03-07T17:45:25.792Z,42.45
2023-03-07T17:47:55.170Z,43.58
2023-03-07T17:50:24.809Z,43.40
2023-03-07T17:52:53.768Z,44.00
2023-03-07T17:55:24.989Z,42.89
2023-03-07T17:57:53.510Z,42.84
2023-03-07T18:00:22.959Z,42.68
2023-03-07T18:02:51.396Z,42.93
2023-03-07T18:05:20.203Z,42.84
2023-03-07T18:07:51.515Z,42.58
2023-03-07T18:10:20.193Z,42.12
2023-03-07T18:12:50.668Z,42.08
2023-03-07T18:15:20.329Z,42.52
2023-03-07T18:17:50.278Z,43.12
2023-03-07T18:20:19.866Z,44.35
2023-03-07T18:22:48.305Z,44.21
2023-03-07T18:25:17.845Z,43.99
2023-03-07T18:27:46.694Z,43.52
2023-03-07T18:30:17.766Z,43.66
2023-03-07T18:32:46.255Z,43.12
2023-03-07T18:35:16.488Z,42.81
2023-03-07T18:37:45.487Z,42.50
2023-03-07T18:40:14.684Z,42.30
2023-03-07T18:42:43.551Z,42.25
2023-03-07T18:45:12.861Z,41.78
2023-03-07T18:47:42.584Z,41.89
2023-03-07T18:50:12.028Z,42.51
2023-03-07T18:52:40.347Z,44.42
2023-03-07T18:55:09.355Z,42.75
2023-03-07T18:57:37.678Z,42.43
2023-03-07T19:00:10.170Z,42.80
2023-03-07T19:02:39.120Z,43.16
2023-03-07T19:05:10.826Z,43.86
2023-03-07T19:07:39.111Z,43.46
2023-03-07T19:10:08.057Z,43.94
2023-03-07T19:12:36.607Z,43.59
2023-03-07T19:15:05.773Z,43.52
2023-03-07T19:17:39.319Z,44.59
2023-03-07T19:20:10.502Z,44.52
2023-03-07T19:22:38.795Z,44.37
2023-03-07T19:25:07.841Z,44.36
2023-03-07T19:27:36.133Z,44.59
2023-03-07T19:30:05.405Z,44.30
2023-03-07T19:32:33.814Z,45.17
2023-03-07T19:35:02.070Z,45.51
2023-03-07T19:37:31.745Z,48.43
2023-03-07T19:39:59.969Z,49.34
2023-03-07T19:42:28.300Z,48.57
2023-03-07T19:44:56.590Z,46.78
2023-03-07T19:47:26.151Z,46.64
2023-03-07T19:49:54.449Z,46.32
2023-03-07T19:52:22.701Z,46.46
2023-03-07T19:54:54.205Z,45.75
2023-03-07T19:57:22.440Z,44.85
2023-03-07T19:59:53.618Z,44.39
2023-03-07T20:02:22.868Z,43.89
2023-03-07T20:04:53.054Z,43.92
2023-03-07T20:07:21.287Z,43.14
2023-03-07T20:09:53.635Z,43.43
2023-03-07T20:12:21.894Z,43.10
2023-03-07T20:14:50.476Z,44.69
2023-03-07T20:17:18.753Z,43.73
2023-03-07T20:19:47.287Z,44.15
2023-03-07T20:22:15.698Z,44.26
2023-03-07T20:24:44.016Z,44.69
2023-03-07T20:27:20.229Z,44.60
2023-03-07T20:29:48.910Z,43.79
2023-03-07T20:32:17.654Z,43.57
2023-03-07T20:34:46.255Z,43.83
2023-03-07T20:37:14.582Z,45.76
2023-03-07T20:39:43.748Z,44.12
2023-03-07T20:42:13.366Z,44.74
2023-03-07T20:44:41.728Z,44.19
2023-03-07T20:47:09.988Z,43.47
2023-03-07T20:49:38.226Z,43.44
2023-03-07T20:52:06.497Z,43.70
2023-03-07T20:54:34.953Z,46.09
2023-03-07T20:57:03.568Z,46.26
2023-03-07T20:59:33.326Z,45.94
2023-03-07T21:02:01.643Z,46.75
2023-03-07T21:04:29.923Z,45.96
2023-03-07T21:06:58.195Z,46.18
2023-03-07T21:09:26.446Z,46.76
2023-03-07T21:11:55.005Z,46.89
2023-03-07T21:14:24.660Z,47.98
2023-03-07T21:16:54.257Z,47.82
2023-03-07T21:19:22.465Z,47.66
2023-03-07T21:21:50.685Z,47.30
2023-03-07T21:24:18.919Z,47.39
2023-03-07T21:26:47.220Z,47.10
2023-03-07T21:29:16.063Z,46.93
2023-03-07T21:31:44.377Z,47.31
2023-03-07T21:34:15.098Z,46.76
2023-03-07T21:36:43.517Z,47.06
2023-03-07T21:39:11.843Z,47.43
2023-03-07T21:41:40.239Z,47.19
2023-03-07T21:44:09.101Z,46.50
2023-03-07T21:46:37.382Z,46.39
2023-03-07T21:49:05.588Z,47.51
2023-03-07T21:51:35.284Z,47.09
2023-03-07T21:54:03.528Z,46.96
2023-03-07T21:56:31.859Z,47.08
2023-03-07T21:59:00.121Z,46.47
2023-03-07T22:01:29.845Z,46.54
2023-03-07T22:03:59.308Z,45.96
2023-03-07T22:06:28.416Z,46.45
2023-03-07T22:08:59.605Z,45.67
2023-03-07T22:11:27.976Z,45.78
2023-03-07T22:13:56.284Z,45.16
2023-03-07T22:16:24.628Z,45.83
2023-03-07T22:18:54.555Z,44.95
2023-03-07T22:21:25.003Z,45.38
2023-03-07T22:23:57.477Z,45.90
2023-03-07T22:26:27.993Z,45.87
2023-03-07T22:28:56.323Z,45.16
2023-03-07T22:31:25.092Z,46.55
2023-03-07T22:33:53.652Z,45.44
2023-03-07T22:36:22.133Z,46.16
2023-03-07T22:38:54.560Z,46.54
2023-03-07T22:41:23.727Z,46.71
2023-03-07T22:43:53.480Z,47.32
2023-03-07T22:46:22.029Z,47.24
2023-03-07T22:48:53.169Z,48.13
2023-03-07T22:51:21.692Z,48.38
2023-03-07T22:53:50.031Z,47.06
2023-03-07T22:56:20.403Z,48.09
2023-03-07T22:58:49.284Z,48.16
2023-03-07T23:01:21.111Z,48.46
2023-03-07T23:03:49.908Z,48.08
2023-03-07T23:06:18.595Z,47.80
2023-03-07T23:08:47.604Z,48.02
2023-03-07T23:11:16.447Z,48.05
2023-03-07T23:13:44.888Z,47.93
2023-03-07T23:16:14.940Z,48.17
2023-03-07T23:18:45.101Z,48.25
2023-03-07T23:21:15.483Z,47.59
2023-03-07T23:23:43.852Z,47.96
2023-03-07T23:26:17.991Z,48.34
2023-03-07T23:28:46.437Z,48.20
2023-03-07T23:31:18.718Z,47.96
2023-03-07T23:33:48.827Z,47.96
2023-03-07T23:36:17.530Z,48.37
2023-03-07T23:38:46.654Z,49.03
2023-03-07T23:41:15.449Z,49.07
2023-03-07T23:43:44.730Z,49.56
2023-03-07T23:46:13.123Z,48.97
2023-03-07T23:48:41.413Z,49.98
2023-03-07T23:51:11.067Z,50.64
2023-03-07T23:53:39.345Z,50.85
2023-03-07T23:56:08.523Z,49.64
2023-03-07T23:58:37.146Z,50.97
